sensor_id;sensor_type;location;lat;lon;timestamp;pressure;altitude;pressure_sealevel;temperature;humidity
12146;BME280;6136;47.032;15.398;2022-09-01T00:02:32;97711.97;;;15.93;nan
12146;BME280;6136;47.032;15.398;2022-09-01T00:05:01;97705.88;;;16.03;nan
12146;BME280;6136;47.032;15.398;2022-09-01T00:07:32;97705.41;;;15.98;nan
12146;BME280;6136;47.032;15.398;2022-09-01T00:10:05;97712.81;;;15.94;nan
12146;BME280;6136;47.032;15.398;2022-09-01T00:12:36;97711.34;;;16.01;nan
12146;BME280;6136;47.032;15.398;2022-09-01T00:15:08;97709.28;;;15.93;nan
12146;BME280;6136;47.032;15.398;2022-09-01T00:17:37;97711.13;;;15.93;nan
12146;BME280;6136;47.032;15.398;2022-09-01T00:20:06;97707.13;;;15.87;nan
12146;BME280;6136;47.032;15.398;2022-09-01T00:22:35;97712.72;;;15.84;nan
12146;BME280;6136;47.032;15.398;2022-09-01T00:25:04;97713.09;;;15.80;nan
12146;BME280;6136;47.032;15.398;2022-09-01T00:27:35;97703.28;;;15.69;nan
12146;BME280;6136;47.032;15.398;2022-09-01T00:30:04;97701.56;;;15.68;nan
12146;BME280;6136;47.032;15.398;2022-09-01T00:32:34;97695.72;;;15.74;nan
12146;BME280;6136;47.032;15.398;2022-09-01T00:35:03;97712.22;;;15.79;nan
12146;BME280;6136;47.032;15.398;2022-09-01T00:37:31;97705.91;;;15.80;nan
12146;BME280;6136;47.032;15.398;2022-09-01T00:40:00;97692.56;;;15.80;nan
12146;BME280;6136;47.032;15.398;2022-09-01T00:42:28;97703.00;;;15.83;nan
12146;BME280;6136;47.032;15.398;2022-09-01T00:44:58;97702.16;;;15.83;nan
12146;BME280;6136;47.032;15.398;2022-09-01T00:47:26;97707.50;;;15.72;nan
12146;BME280;6136;47.032;15.398;2022-09-01T00:49:55;97696.47;;;15.65;nan
12146;BME280;6136;47.032;15.398;2022-09-01T00:52:30;97698.16;;;15.66;nan
12146;BME280;6136;47.032;15.398;2022-09-01T00:55:01;97706.19;;;15.77;nan
12146;BME280;6136;47.032;15.398;2022-09-01T00:57:34;97700.97;;;15.76;nan
12146;BME280;6136;47.032;15.398;2022-09-01T01:00:07;97711.03;;;15.72;nan
12146;BME280;6136;47.032;15.398;2022-09-01T01:02:38;97703.03;;;15.61;nan
12146;BME280;6136;47.032;15.398;2022-09-01T01:05:07;97704.00;;;15.60;nan
12146;BME280;6136;47.032;15.398;2022-09-01T01:07:38;97710.59;;;15.56;nan
12146;BME280;6136;47.032;15.398;2022-09-01T01:10:09;97710.81;;;15.53;nan
12146;BME280;6136;47.032;15.398;2022-09-01T01:12:38;97704.41;;;15.56;nan
12146;BME280;6136;47.032;15.398;2022-09-01T01:15:11;97702.81;;;15.53;nan
12146;BME280;6136;47.032;15.398;2022-09-01T01:17:39;97698.31;;;15.53;nan
12146;BME280;6136;47.032;15.398;2022-09-01T01:20:08;97695.72;;;15.52;nan
12146;BME280;6136;47.032;15.398;2022-09-01T01:22:59;97701.72;;;15.56;nan
12146;BME280;6136;47.032;15.398;2022-09-01T01:25:39;97700.88;;;15.55;nan
12146;BME280;6136;47.032;15.398;2022-09-01T01:28:11;97701.94;;;15.52;nan
12146;BME280;6136;47.032;15.398;2022-09-01T01:30:43;97703.00;;;15.50;nan
12146;BME280;6136;47.032;15.398;2022-09-01T01:33:11;97709.09;;;15.52;nan
12146;BME280;6136;47.032;15.398;2022-09-01T01:35:40;97700.72;;;15.45;nan
12146;BME280;6136;47.032;15.398;2022-09-01T01:38:09;97708.63;;;15.47;nan
12146;BME280;6136;47.032;15.398;2022-09-01T01:40:39;97706.16;;;15.44;nan
12146;BME280;6136;47.032;15.398;2022-09-01T01:43:08;97699.13;;;15.43;nan
12146;BME280;6136;47.032;15.398;2022-09-01T01:45:37;97694.16;;;15.38;nan
12146;BME280;6136;47.032;15.398;2022-09-01T01:48:06;97703.03;;;15.39;nan
12146;BME280;6136;47.032;15.398;2022-09-01T01:50:35;97697.56;;;15.40;nan
12146;BME280;6136;47.032;15.398;2022-09-01T01:53:06;97694.28;;;15.37;nan
12146;BME280;6136;47.032;15.398;2022-09-01T01:55:40;97701.56;;;15.35;nan
12146;BME280;6136;47.032;15.398;2022-09-01T01:58:09;97694.28;;;15.37;nan
12146;BME280;6136;47.032;15.398;2022-09-01T02:00:42;97694.28;;;15.37;nan
12146;BME280;6136;47.032;15.398;2022-09-01T02:03:14;97685.69;;;15.33;nan
12146;BME280;6136;47.032;15.398;2022-09-01T02:05:46;97694.53;;;15.34;nan
12146;BME280;6136;47.032;15.398;2022-09-01T02:08:15;97686.03;;;15.29;nan
12146;BME280;6136;47.032;15.398;2022-09-01T02:10:52;97691.88;;;15.34;nan
12146;BME280;6136;47.032;15.398;2022-09-01T02:13:23;97700.69;;;15.34;nan
12146;BME280;6136;47.032;15.398;2022-09-01T02:15:59;97691.38;;;15.29;nan
12146;BME280;6136;47.032;15.398;2022-09-01T02:18:31;97702.75;;;15.20;nan
12146;BME280;6136;47.032;15.398;2022-09-01T02:21:01;97697.94;;;15.25;nan
12146;BME280;6136;47.032;15.398;2022-09-01T02:23:31;97699.50;;;15.16;nan
12146;BME280;6136;47.032;15.398;2022-09-01T02:26:01;97703.50;;;15.22;nan
12146;BME280;6136;47.032;15.398;2022-09-01T02:28:44;97699.25;;;15.19;nan
12146;BME280;6136;47.032;15.398;2022-09-01T02:31:25;97695.59;;;15.20;nan
12146;BME280;6136;47.032;15.398;2022-09-01T02:33:57;97693.09;;;15.19;nan
12146;BME280;6136;47.032;15.398;2022-09-01T02:36:27;97691.13;;;15.09;nan
12146;BME280;6136;47.032;15.398;2022-09-01T02:38:59;97685.91;;;15.08;nan
12146;BME280;6136;47.032;15.398;2022-09-01T02:41:29;97685.06;;;15.07;nan
12146;BME280;6136;47.032;15.398;2022-09-01T02:44:01;97687.50;;;15.10;nan
12146;BME280;6136;47.032;15.398;2022-09-01T02:46:30;97688.69;;;15.06;nan
12146;BME280;6136;47.032;15.398;2022-09-01T02:48:58;97692.94;;;15.09;nan
12146;BME280;6136;47.032;15.398;2022-09-01T02:51:28;97691.13;;;15.09;nan
12146;BME280;6136;47.032;15.398;2022-09-01T02:53:56;97692.09;;;15.08;nan
12146;BME280;6136;47.032;15.398;2022-09-01T02:56:25;97696.34;;;15.11;nan
12146;BME280;6136;47.032;15.398;2022-09-01T02:58:55;97691.13;;;15.09;nan
12146;BME280;6136;47.032;15.398;2022-09-01T03:01:26;97693.81;;;15.09;nan
12146;BME280;6136;47.032;15.398;2022-09-01T03:03:57;97694.13;;;15.05;nan
12146;BME280;6136;47.032;15.398;2022-09-01T03:06:27;97698.63;;;15.04;nan
12146;BME280;6136;47.032;15.398;2022-09-01T03:08:57;97692.06;;;14.97;nan
12146;BME280;6136;47.032;15.398;2022-09-01T03:11:27;97699.47;;;14.94;nan
12146;BME280;6136;47.032;15.398;2022-09-01T03:13:58;97693.88;;;14.97;nan
12146;BME280;6136;47.032;15.398;2022-09-01T03:16:27;97690.03;;;15.01;nan
12146;BME280;6136;47.032;15.398;2022-09-01T03:18:57;97689.06;;;15.02;nan
12146;BME280;6136;47.032;15.398;2022-09-01T03:21:25;97685.53;;;15.01;nan
12146;BME280;6136;47.032;15.398;2022-09-01T03:23:54;97678.50;;;15.00;nan
12146;BME280;6136;47.032;15.398;2022-09-01T03:26:24;97668.91;;;14.98;nan
12146;BME280;6136;47.032;15.398;2022-09-01T03:28:53;97677.28;;;14.93;nan
12146;BME280;6136;47.032;15.398;2022-09-01T03:31:23;97676.44;;;14.93;nan
12146;BME280;6136;47.032;15.398;2022-09-01T03:33:55;97670.50;;;14.89;nan
12146;BME280;6136;47.032;15.398;2022-09-01T03:36:29;97675.69;;;14.91;nan
12146;BME280;6136;47.032;15.398;2022-09-01T03:38:59;97668.78;;;14.88;nan
12146;BME280;6136;47.032;15.398;2022-09-01T03:41:29;97672.75;;;14.83;nan
12146;BME280;6136;47.032;15.398;2022-09-01T03:43:58;97667.91;;;14.76;nan
12146;BME280;6136;47.032;15.398;2022-09-01T03:46:31;97666.56;;;14.82;nan
12146;BME280;6136;47.032;15.398;2022-09-01T03:49:03;97666.84;;;14.79;nan
12146;BME280;6136;47.032;15.398;2022-09-01T03:51:35;97669.25;;;14.82;nan
12146;BME280;6136;47.032;15.398;2022-09-01T03:54:05;97671.56;;;14.87;nan
12146;BME280;6136;47.032;15.398;2022-09-01T03:56:34;97673.88;;;14.91;nan
12146;BME280;6136;47.032;15.398;2022-09-01T03:59:02;97676.31;;;14.94;nan
12146;BME280;6136;47.032;15.398;2022-09-01T04:01:32;97672.66;;;14.84;nan
12146;BME280;6136;47.032;15.398;2022-09-01T04:04:09;97679.31;;;14.79;nan
12146;BME280;6136;47.032;15.398;2022-09-01T04:06:41;97674.81;;;14.68;nan
12146;BME280;6136;47.032;15.398;2022-09-01T04:09:10;97679.53;;;14.64;nan
12146;BME280;6136;47.032;15.398;2022-09-01T04:11:41;97660.25;;;14.61;nan
12146;BME280;6136;47.032;15.398;2022-09-01T04:14:14;97665.25;;;14.65;nan
12146;BME280;6136;47.032;15.398;2022-09-01T04:16:45;97665.34;;;14.64;nan
12146;BME280;6136;47.032;15.398;2022-09-01T04:19:34;97660.00;;;14.64;nan
12146;BME280;6136;47.032;15.398;2022-09-01T04:22:06;97672.38;;;14.65;nan
12146;BME280;6136;47.032;15.398;2022-09-01T04:24:42;97663.75;;;14.61;nan
12146;BME280;6136;47.032;15.398;2022-09-01T04:27:13;97662.19;;;14.59;nan
12146;BME280;6136;47.032;15.398;2022-09-01T04:29:41;97667.28;;;14.62;nan
12146;BME280;6136;47.032;15.398;2022-09-01T04:32:13;97663.03;;;14.59;nan
12146;BME280;6136;47.032;15.398;2022-09-01T04:34:49;97666.41;;;14.61;nan
12146;BME280;6136;47.032;15.398;2022-09-01T04:37:19;97652.97;;;14.63;nan
12146;BME280;6136;47.032;15.398;2022-09-01T04:39:54;97658.94;;;14.66;nan
12146;BME280;6136;47.032;15.398;2022-09-01T04:42:24;97656.38;;;14.65;nan
12146;BME280;6136;47.032;15.398;2022-09-01T04:44:55;97658.09;;;14.66;nan
12146;BME280;6136;47.032;15.398;2022-09-01T04:47:27;97655.28;;;14.67;nan
12146;BME280;6136;47.032;15.398;2022-09-01T04:50:04;97652.75;;;14.66;nan
12146;BME280;6136;47.032;15.398;2022-09-01T04:52:42;97650.47;;;14.72;nan
12146;BME280;6136;47.032;15.398;2022-09-01T04:55:23;97651.53;;;14.70;nan
12146;BME280;6136;47.032;15.398;2022-09-01T04:57:56;97647.41;;;14.77;nan
12146;BME280;6136;47.032;15.398;2022-09-01T05:00:26;97651.69;;;14.80;nan
12146;BME280;6136;47.032;15.398;2022-09-01T05:03:01;97652.16;;;14.85;nan
12146;BME280;6136;47.032;15.398;2022-09-01T05:05:49;97648.91;;;14.92;nan
12146;BME280;6136;47.032;15.398;2022-09-01T05:08:21;97654.22;;;14.92;nan
12146;BME280;6136;47.032;15.398;2022-09-01T05:10:53;97653.88;;;15.08;nan
12146;BME280;6136;47.032;15.398;2022-09-01T05:13:44;97649.16;;;15.00;nan
12146;BME280;6136;47.032;15.398;2022-09-01T05:16:15;97653.25;;;15.04;nan
12146;BME280;6136;47.032;15.398;2022-09-01T05:18:52;97659.44;;;15.05;nan
12146;BME280;6136;47.032;15.398;2022-09-01T05:21:25;97652.78;;;15.10;nan
12146;BME280;6136;47.032;15.398;2022-09-01T05:23:57;97656.91;;;15.14;nan
12146;BME280;6136;47.032;15.398;2022-09-01T05:26:29;97651.34;;;15.18;nan
12146;BME280;6136;47.032;15.398;2022-09-01T05:29:00;97651.81;;;15.23;nan
12146;BME280;6136;47.032;15.398;2022-09-01T05:31:30;97651.44;;;15.27;nan
12146;BME280;6136;47.032;15.398;2022-09-01T05:34:02;97646.94;;;15.39;nan
12146;BME280;6136;47.032;15.398;2022-09-01T05:36:31;97639.16;;;15.47;nan
12146;BME280;6136;47.032;15.398;2022-09-01T05:39:02;97638.81;;;15.63;nan
12146;BME280;6136;47.032;15.398;2022-09-01T05:41:31;97645.69;;;15.76;nan
12146;BME280;6136;47.032;15.398;2022-09-01T05:44:03;97646.91;;;15.83;nan
12146;BME280;6136;47.032;15.398;2022-09-01T05:46:35;97640.19;;;15.89;nan
12146;BME280;6136;47.032;15.398;2022-09-01T05:49:07;97646.22;;;16.02;nan
12146;BME280;6136;47.032;15.398;2022-09-01T05:51:40;97644.59;;;16.11;nan
12146;BME280;6136;47.032;15.398;2022-09-01T05:54:13;97639.22;;;16.22;nan
12146;BME280;6136;47.032;15.398;2022-09-01T05:56:43;97638.94;;;16.25;nan
12146;BME280;6136;47.032;15.398;2022-09-01T05:59:15;97638.94;;;16.25;nan
12146;BME280;6136;47.032;15.398;2022-09-01T06:01:54;97644.78;;;16.30;nan
12146;BME280;6136;47.032;15.398;2022-09-01T06:04:25;97642.69;;;16.34;nan
12146;BME280;6136;47.032;15.398;2022-09-01T06:07:01;97651.56;;;16.34;nan
12146;BME280;6136;47.032;15.398;2022-09-01T06:09:42;97656.91;;;16.34;nan
12146;BME280;6136;47.032;15.398;2022-09-01T06:12:12;97657.84;;;16.44;nan
12146;BME280;6136;47.032;15.398;2022-09-01T06:14:46;97656.78;;;16.56;nan
12146;BME280;6136;47.032;15.398;2022-09-01T06:17:15;97665.03;;;16.64;nan
12146;BME280;6136;47.032;15.398;2022-09-01T06:19:46;97659.59;;;16.76;nan
12146;BME280;6136;47.032;15.398;2022-09-01T06:22:15;97659.09;;;16.82;nan
12146;BME280;6136;47.032;15.398;2022-09-01T06:24:43;97658.16;;;16.92;nan
12146;BME280;6136;47.032;15.398;2022-09-01T06:27:15;97657.31;;;16.92;nan
12146;BME280;6136;47.032;15.398;2022-09-01T06:29:46;97663.84;;;16.99;nan
12146;BME280;6136;47.032;15.398;2022-09-01T06:32:20;97666.69;;;17.07;nan
12146;BME280;6136;47.032;15.398;2022-09-01T06:34:54;97670.31;;;17.27;nan
12146;BME280;6136;47.032;15.398;2022-09-01T06:37:24;97662.59;;;17.33;nan
12146;BME280;6136;47.032;15.398;2022-09-01T06:39:59;97669.44;;;17.57;nan
12146;BME280;6136;47.032;15.398;2022-09-01T06:42:28;97662.19;;;17.68;nan
12146;BME280;6136;47.032;15.398;2022-09-01T06:45:01;97669.53;;;17.76;nan
12146;BME280;6136;47.032;15.398;2022-09-01T06:47:30;97667.34;;;18.00;nan
12146;BME280;6136;47.032;15.398;2022-09-01T06:50:00;97663.53;;;18.32;nan
12146;BME280;6136;47.032;15.398;2022-09-01T06:52:28;97668.75;;;18.43;nan
12146;BME280;6136;47.032;15.398;2022-09-01T06:55:17;97664.56;;;18.59;nan
12146;BME280;6136;47.032;15.398;2022-09-01T06:57:45;97677.22;;;18.77;nan
12146;BME280;6136;47.032;15.398;2022-09-01T07:00:40;97675.94;;;18.90;nan
12146;BME280;6136;47.032;15.398;2022-09-01T07:03:12;97682.31;;;18.89;nan
12146;BME280;6136;47.032;15.398;2022-09-01T07:05:50;97684.25;;;19.07;nan
12146;BME280;6136;47.032;15.398;2022-09-01T07:08:54;97683.88;;;19.38;nan
12146;BME280;6136;47.032;15.398;2022-09-01T07:11:54;97695.75;;;19.73;nan
12146;BME280;6136;47.032;15.398;2022-09-01T07:14:42;97702.63;;;20.12;nan
12146;BME280;6136;47.032;15.398;2022-09-01T07:17:32;97699.31;;;20.19;nan
12146;BME280;6136;47.032;15.398;2022-09-01T07:20:01;97698.72;;;20.78;nan
12146;BME280;6136;47.032;15.398;2022-09-01T07:22:52;97702.84;;;21.08;nan
12146;BME280;6136;47.032;15.398;2022-09-01T07:25:39;97705.66;;;21.50;nan
12146;BME280;6136;47.032;15.398;2022-09-01T07:28:38;97699.41;;;22.17;nan
12146;BME280;6136;47.032;15.398;2022-09-01T07:31:07;97700.72;;;23.04;nan
12146;BME280;6136;47.032;15.398;2022-09-01T07:34:00;97698.97;;;23.35;nan
12146;BME280;6136;47.032;15.398;2022-09-01T07:36:50;97693.19;;;24.41;nan
12146;BME280;6136;47.032;15.398;2022-09-01T07:39:44;97705.00;;;24.70;nan
12146;BME280;6136;47.032;15.398;2022-09-01T07:42:29;97709.09;;;25.64;nan
12146;BME280;6136;47.032;15.398;2022-09-01T07:45:36;97701.38;;;25.38;nan
12146;BME280;6136;47.032;15.398;2022-09-01T07:48:15;97697.75;;;25.46;nan
12146;BME280;6136;47.032;15.398;2022-09-01T07:51:06;97703.00;;;24.87;nan
12146;BME280;6136;47.032;15.398;2022-09-01T07:53:54;97697.31;;;24.82;nan
12146;BME280;6136;47.032;15.398;2022-09-01T07:56:25;97695.97;;;24.24;nan
12146;BME280;6136;47.032;15.398;2022-09-01T07:58:53;97690.56;;;23.85;nan
12146;BME280;6136;47.032;15.398;2022-09-01T08:01:24;97694.13;;;23.86;nan
12146;BME280;6136;47.032;15.398;2022-09-01T08:03:54;97698.06;;;24.14;nan
12146;BME280;6136;47.032;15.398;2022-09-01T08:06:25;97704.78;;;24.18;nan
12146;BME280;6136;47.032;15.398;2022-09-01T08:08:57;97702.16;;;24.64;nan
12146;BME280;6136;47.032;15.398;2022-09-01T08:11:30;97698.56;;;24.94;nan
12146;BME280;6136;47.032;15.398;2022-09-01T08:14:18;97699.34;;;25.55;nan
12146;BME280;6136;47.032;15.398;2022-09-01T08:16:48;97699.06;;;25.12;nan
12146;BME280;6136;47.032;15.398;2022-09-01T08:19:18;97690.97;;;24.90;nan
12146;BME280;6136;47.032;15.398;2022-09-01T08:22:03;97692.00;;;24.66;nan
12146;BME280;6136;47.032;15.398;2022-09-01T08:24:54;97695.78;;;25.02;nan
12146;BME280;6136;47.032;15.398;2022-09-01T08:27:23;97705.50;;;24.74;nan
12146;BME280;6136;47.032;15.398;2022-09-01T08:29:51;97706.63;;;24.26;nan
12146;BME280;6136;47.032;15.398;2022-09-01T08:32:20;97704.59;;;24.59;nan
12146;BME280;6136;47.032;15.398;2022-09-01T08:34:49;97704.25;;;25.22;nan
12146;BME280;6136;47.032;15.398;2022-09-01T08:37:18;97705.53;;;25.49;nan
12146;BME280;6136;47.032;15.398;2022-09-01T08:39:47;97707.03;;;25.81;nan
12146;BME280;6136;47.032;15.398;2022-09-01T08:42:20;97706.09;;;26.03;nan
12146;BME280;6136;47.032;15.398;2022-09-01T08:45:02;97710.22;;;26.14;nan
12146;BME280;6136;47.032;15.398;2022-09-01T08:47:33;97705.66;;;26.00;nan
12146;BME280;6136;47.032;15.398;2022-09-01T08:50:21;97695.31;;;26.82;nan
12146;BME280;6136;47.032;15.398;2022-09-01T08:53:21;97693.66;;;28.81;nan
12146;BME280;6136;47.032;15.398;2022-09-01T08:55:55;97698.69;;;29.76;nan
12146;BME280;6136;47.032;15.398;2022-09-01T08:58:25;97694.34;;;30.71;nan
12146;BME280;6136;47.032;15.398;2022-09-01T09:01:20;97680.00;;;31.81;nan
12146;BME280;6136;47.032;15.398;2022-09-01T09:04:03;97676.38;;;32.54;nan
12146;BME280;6136;47.032;15.398;2022-09-01T09:06:41;97674.06;;;32.03;nan
12146;BME280;6136;47.032;15.398;2022-09-01T09:09:14;97665.69;;;31.61;nan
12146;BME280;6136;47.032;15.398;2022-09-01T09:11:54;97662.34;;;32.14;nan
12146;BME280;6136;47.032;15.398;2022-09-01T09:14:44;97655.88;;;33.28;nan
12146;BME280;6136;47.032;15.398;2022-09-01T09:17:19;97661.75;;;33.31;nan
12146;BME280;6136;47.032;15.398;2022-09-01T09:19:51;97662.16;;;33.17;nan
12146;BME280;6136;47.032;15.398;2022-09-01T09:22:20;97659.75;;;32.37;nan
12146;BME280;6136;47.032;15.398;2022-09-01T09:24:50;97668.13;;;31.69;nan
12146;BME280;6136;47.032;15.398;2022-09-01T09:27:24;97668.47;;;29.51;nan
12146;BME280;6136;47.032;15.398;2022-09-01T09:29:54;97666.53;;;28.12;nan
12146;BME280;6136;47.032;15.398;2022-09-01T09:32:42;97665.75;;;26.93;nan
12146;BME280;6136;47.032;15.398;2022-09-01T09:35:34;97662.16;;;26.72;nan
12146;BME280;6136;47.032;15.398;2022-09-01T09:38:18;97663.34;;;26.62;nan
12146;BME280;6136;47.032;15.398;2022-09-01T09:40:56;97662.66;;;25.88;nan
12146;BME280;6136;47.032;15.398;2022-09-01T09:43:48;97660.47;;;26.28;nan
12146;BME280;6136;47.032;15.398;2022-09-01T09:46:26;97658.47;;;27.84;nan
12146;BME280;6136;47.032;15.398;2022-09-01T09:49:11;97656.59;;;27.29;nan
12146;BME280;6136;47.032;15.398;2022-09-01T09:51:42;97660.63;;;27.61;nan
12146;BME280;6136;47.032;15.398;2022-09-01T09:54:17;97657.97;;;27.74;nan
12146;BME280;6136;47.032;15.398;2022-09-01T09:56:47;97647.22;;;26.61;nan
12146;BME280;6136;47.032;15.398;2022-09-01T09:59:27;97645.47;;;27.86;nan
12146;BME280;6136;47.032;15.398;2022-09-01T10:02:23;97632.72;;;26.96;nan
12146;BME280;6136;47.032;15.398;2022-09-01T10:04:54;97633.19;;;26.57;nan
12146;BME280;6136;47.032;15.398;2022-09-01T10:07:26;97634.63;;;26.03;nan
12146;BME280;6136;47.032;15.398;2022-09-01T10:09:57;97636.94;;;25.26;nan
12146;BME280;6136;47.032;15.398;2022-09-01T10:12:27;97631.84;;;24.85;nan
12146;BME280;6136;47.032;15.398;2022-09-01T10:14:59;97630.63;;;24.50;nan
12146;BME280;6136;47.032;15.398;2022-09-01T10:17:34;97630.47;;;25.56;nan
12146;BME280;6136;47.032;15.398;2022-09-01T10:20:08;97617.16;;;26.90;nan
12146;BME280;6136;47.032;15.398;2022-09-01T10:22:39;97621.34;;;26.08;nan
12146;BME280;6136;47.032;15.398;2022-09-01T10:25:12;97630.13;;;24.92;nan
12146;BME280;6136;47.032;15.398;2022-09-01T10:27:46;97632.91;;;24.38;nan
12146;BME280;6136;47.032;15.398;2022-09-01T10:30:17;97630.53;;;23.82;nan
12146;BME280;6136;47.032;15.398;2022-09-01T10:32:48;97641.41;;;23.66;nan
12146;BME280;6136;47.032;15.398;2022-09-01T10:35:25;97627.28;;;23.47;nan
12146;BME280;6136;47.032;15.398;2022-09-01T10:37:55;97630.81;;;23.56;nan
12146;BME280;6136;47.032;15.398;2022-09-01T10:40:37;97630.53;;;23.82;nan
12146;BME280;6136;47.032;15.398;2022-09-01T10:43:35;97624.25;;;24.20;nan
12146;BME280;6136;47.032;15.398;2022-09-01T10:55:43;97633.63;;;24.78;nan
12146;BME280;6136;47.032;15.398;2022-09-01T10:58:42;97628.94;;;24.72;nan
12146;BME280;6136;47.032;15.398;2022-09-01T11:02:13;97637.69;;;24.06;nan
12146;BME280;6136;47.032;15.398;2022-09-01T11:05:16;97646.22;;;23.55;nan
12146;BME280;6136;47.032;15.398;2022-09-01T11:07:45;97643.53;;;23.31;nan
12146;BME280;6136;47.032;15.398;2022-09-01T11:10:47;97645.97;;;23.10;nan
12146;BME280;6136;47.032;15.398;2022-09-01T11:13:31;97640.56;;;23.02;nan
12146;BME280;6136;47.032;15.398;2022-09-01T11:16:31;97641.41;;;23.66;nan
12146;BME280;6136;47.032;15.398;2022-09-01T11:19:34;97648.44;;;23.83;nan
12146;BME280;6136;47.032;15.398;2022-09-01T11:22:12;97646.19;;;23.64;nan
12146;BME280;6136;47.032;15.398;2022-09-01T11:25:06;97654.06;;;23.18;nan
12146;BME280;6136;47.032;15.398;2022-09-01T11:27:59;97653.72;;;22.56;nan
12146;BME280;6136;47.032;15.398;2022-09-01T11:30:35;97643.41;;;22.19;nan
12146;BME280;6136;47.032;15.398;2022-09-01T11:33:12;97641.09;;;21.90;nan
12146;BME280;6136;47.032;15.398;2022-09-01T11:35:45;97650.09;;;21.65;nan
12146;BME280;6136;47.032;15.398;2022-09-01T11:38:15;97650.31;;;21.38;nan
12146;BME280;6136;47.032;15.398;2022-09-01T11:40:53;97656.53;;;21.12;nan
12146;BME280;6136;47.032;15.398;2022-09-01T11:43:24;97653.28;;;21.18;nan
12146;BME280;6136;47.032;15.398;2022-09-01T11:46:02;97650.56;;;21.18;nan
12146;BME280;6136;47.032;15.398;2022-09-01T11:48:33;97653.63;;;21.23;nan
12146;BME280;6136;47.032;15.398;2022-09-01T11:51:03;97647.41;;;21.05;nan
12146;BME280;6136;47.032;15.398;2022-09-01T11:53:32;97650.94;;;21.06;nan
12146;BME280;6136;47.032;15.398;2022-09-01T11:56:13;97656.56;;;21.38;nan
12146;BME280;6136;47.032;15.398;2022-09-01T11:58:43;97649.69;;;21.44;nan
12146;BME280;6136;47.032;15.398;2022-09-01T12:01:15;97647.94;;;21.35;nan
12146;BME280;6136;47.032;15.398;2022-09-01T12:03:44;97650.84;;;21.15;nan
12146;BME280;6136;47.032;15.398;2022-09-01T12:06:19;97646.75;;;21.29;nan
12146;BME280;6136;47.032;15.398;2022-09-01T12:08:54;97645.75;;;21.04;nan
12146;BME280;6136;47.032;15.398;2022-09-01T12:11:25;97649.25;;;21.22;nan
12146;BME280;6136;47.032;15.398;2022-09-01T12:13:59;97653.31;;;21.26;nan
12146;BME280;6136;47.032;15.398;2022-09-01T12:16:29;97648.09;;;21.07;nan
12146;BME280;6136;47.032;15.398;2022-09-01T12:19:00;97652.22;;;21.19;nan
12146;BME280;6136;47.032;15.398;2022-09-01T12:21:32;97652.97;;;21.04;nan
12146;BME280;6136;47.032;15.398;2022-09-01T12:24:16;97659.94;;;21.14;nan
12146;BME280;6136;47.032;15.398;2022-09-01T12:26:46;97645.38;;;21.25;nan
12146;BME280;6136;47.032;15.398;2022-09-01T12:29:16;97652.34;;;21.36;nan
12146;BME280;6136;47.032;15.398;2022-09-01T12:31:47;97645.28;;;21.43;nan
12146;BME280;6136;47.032;15.398;2022-09-01T12:34:30;97645.22;;;22.11;nan
12146;BME280;6136;47.032;15.398;2022-09-01T12:37:09;97638.53;;;22.71;nan
12146;BME280;6136;47.032;15.398;2022-09-01T12:39:39;97632.75;;;23.23;nan
12146;BME280;6136;47.032;15.398;2022-09-01T12:42:10;97638.13;;;23.31;nan
12146;BME280;6136;47.032;15.398;2022-09-01T12:44:47;97633.19;;;23.90;nan
12146;BME280;6136;47.032;15.398;2022-09-01T12:47:50;97633.94;;;24.07;nan
12146;BME280;6136;47.032;15.398;2022-09-01T12:50:52;97640.03;;;23.14;nan
12146;BME280;6136;47.032;15.398;2022-09-01T12:53:25;97631.16;;;22.81;nan
12146;BME280;6136;47.032;15.398;2022-09-01T12:56:03;97630.44;;;22.71;nan
12146;BME280;6136;47.032;15.398;2022-09-01T12:58:32;97641.22;;;22.23;nan
12146;BME280;6136;47.032;15.398;2022-09-01T13:01:04;97635.06;;;21.96;nan
12146;BME280;6136;47.032;15.398;2022-09-01T13:03:37;97639.03;;;21.76;nan
12146;BME280;6136;47.032;15.398;2022-09-01T13:06:06;97646.38;;;21.58;nan
12146;BME280;6136;47.032;15.398;2022-09-01T13:08:34;97631.47;;;21.38;nan
12146;BME280;6136;47.032;15.398;2022-09-01T13:11:05;97645.81;;;21.46;nan
12146;BME280;6136;47.032;15.398;2022-09-01T13:13:34;97647.47;;;21.39;nan
12146;BME280;6136;47.032;15.398;2022-09-01T13:16:05;97647.13;;;21.42;nan
12146;BME280;6136;47.032;15.398;2022-09-01T13:18:39;97646.28;;;21.42;nan
12146;BME280;6136;47.032;15.398;2022-09-01T13:21:27;97642.63;;;21.51;nan
12146;BME280;6136;47.032;15.398;2022-09-01T13:23:56;97644.09;;;21.37;nan
12146;BME280;6136;47.032;15.398;2022-09-01T13:26:24;97652.66;;;21.33;nan
12146;BME280;6136;47.032;15.398;2022-09-01T13:28:55;97642.84;;;21.23;nan
12146;BME280;6136;47.032;15.398;2022-09-01T13:31:25;97646.44;;;21.32;nan
12146;BME280;6136;47.032;15.398;2022-09-01T13:33:56;97652.88;;;21.39;nan
12146;BME280;6136;47.032;15.398;2022-09-01T13:36:44;97652.34;;;21.36;nan
12146;BME280;6136;47.032;15.398;2022-09-01T13:39:17;97650.63;;;21.35;nan
12146;BME280;6136;47.032;15.398;2022-09-01T13:41:46;97652.28;;;21.27;nan
12146;BME280;6136;47.032;15.398;2022-09-01T13:44:14;97653.31;;;21.26;nan
12146;BME280;6136;47.032;15.398;2022-09-01T13:46:45;97652.47;;;21.26;nan
12146;BME280;6136;47.032;15.398;2022-09-01T13:49:34;97648.88;;;21.17;nan
12146;BME280;6136;47.032;15.398;2022-09-01T13:52:22;97650.84;;;21.15;nan
12146;BME280;6136;47.032;15.398;2022-09-01T13:54:50;97647.88;;;21.18;nan
12146;BME280;6136;47.032;15.398;2022-09-01T13:57:18;97648.16;;;21.15;nan
12146;BME280;6136;47.032;15.398;2022-09-01T13:59:47;97652.84;;;21.13;nan
12146;BME280;6136;47.032;15.398;2022-09-01T14:02:16;97650.94;;;21.06;nan
12146;BME280;6136;47.032;15.398;2022-09-01T14:04:44;97648.25;;;21.06;nan
12146;BME280;6136;47.032;15.398;2022-09-01T14:07:12;97653.81;;;21.04;nan
12146;BME280;6136;47.032;15.398;2022-09-01T14:09:41;97647.88;;;21.01;nan
12146;BME280;6136;47.032;15.398;2022-09-01T14:12:10;97651.59;;;21.00;nan
12146;BME280;6136;47.032;15.398;2022-09-01T14:14:38;97659.22;;;21.04;nan